sensor_id;sensor_type;location;lat;lon;timestamp;temperature;humidity
14511;DHT22;7341;50.930;4.038;2022-10-31T00:00:15;14.40;99.90
14511;DHT22;7341;50.930;4.038;2022-10-31T00:02:42;14.40;99.90
14511;DHT22;7341;50.930;4.038;2022-10-31T00:05:10;14.30;99.90
14511;DHT22;7341;50.930;4.038;2022-10-31T00:07:37;14.20;99.90
14511;DHT22;7341;50.930;4.038;2022-10-31T00:10:05;14.20;99.90
14511;DHT22;7341;50.930;4.038;2022-10-31T00:12:32;14.10;99.90
14511;DHT22;7341;50.930;4.038;2022-10-31T00:14:59;14.10;99.90
14511;DHT22;7341;50.930;4.038;2022-10-31T00:17:27;14.00;99.90
14511;DHT22;7341;50.930;4.038;2022-10-31T00:19:56;14.10;99.90
14511;DHT22;7341;50.930;4.038;2022-10-31T00:22:23;14.10;99.90
14511;DHT22;7341;50.930;4.038;2022-10-31T00:24:50;14.00;99.90
14511;DHT22;7341;50.930;4.038;2022-10-31T00:27:16;14.10;99.90
14511;DHT22;7341;50.930;4.038;2022-10-31T00:29:43;13.90;99.90
14511;DHT22;7341;50.930;4.038;2022-10-31T00:32:10;13.90;99.90
14511;DHT22;7341;50.930;4.038;2022-10-31T00:34:38;13.80;99.90
14511;DHT22;7341;50.930;4.038;2022-10-31T00:37:06;13.80;99.90
14511;DHT22;7341;50.930;4.038;2022-10-31T00:39:33;13.80;99.90
14511;DHT22;7341;50.930;4.038;2022-10-31T00:42:00;13.80;99.90
14511;DHT22;7341;50.930;4.038;2022-10-31T00:44:26;13.80;99.90
14511;DHT22;7341;50.930;4.038;2022-10-31T00:46:53;13.70;99.90
14511;DHT22;7341;50.930;4.038;2022-10-31T00:49:20;13.60;99.90
14511;DHT22;7341;50.930;4.038;2022-10-31T00:51:53;13.60;99.90
14511;DHT22;7341;50.930;4.038;2022-10-31T00:54:20;13.60;99.90
14511;DHT22;7341;50.930;4.038;2022-10-31T00:56:47;13.60;99.90
14511;DHT22;7341;50.930;4.038;2022-10-31T00:59:14;13.60;99.90
14511;DHT22;7341;50.930;4.038;2022-10-31T01:01:41;13.60;99.90
14511;DHT22;7341;50.930;4.038;2022-10-31T01:04:07;13.50;99.90
14511;DHT22;7341;50.930;4.038;2022-10-31T01:06:34;13.50;99.90
14511;DHT22;7341;50.930;4.038;2022-10-31T01:09:02;13.50;99.90
14511;DHT22;7341;50.930;4.038;2022-10-31T01:11:29;13.50;99.90
14511;DHT22;7341;50.930;4.038;2022-10-31T01:13:56;13.50;99.90
14511;DHT22;7341;50.930;4.038;2022-10-31T01:16:25;13.50;99.90
14511;DHT22;7341;50.930;4.038;2022-10-31T01:18:53;13.50;99.90
14511;DHT22;7341;50.930;4.038;2022-10-31T01:21:25;13.40;99.90
14511;DHT22;7341;50.930;4.038;2022-10-31T01:23:54;13.40;99.90
14511;DHT22;7341;50.930;4.038;2022-10-31T01:26:25;13.30;99.90
14511;DHT22;7341;50.930;4.038;2022-10-31T01:28:55;13.20;99.90
14511;DHT22;7341;50.930;4.038;2022-10-31T01:31:23;13.20;99.90
14511;DHT22;7341;50.930;4.038;2022-10-31T01:33:51;13.20;99.90
14511;DHT22;7341;50.930;4.038;2022-10-31T01:36:20;13.20;99.90
14511;DHT22;7341;50.930;4.038;2022-10-31T01:38:48;13.20;99.90
14511;DHT22;7341;50.930;4.038;2022-10-31T01:41:18;13.20;99.90
14511;DHT22;7341;50.930;4.038;2022-10-31T01:43:50;13.20;99.90
14511;DHT22;7341;50.930;4.038;2022-10-31T01:46:21;13.10;99.90
14511;DHT22;7341;50.930;4.038;2022-10-31T01:48:50;13.10;99.90
14511;DHT22;7341;50.930;4.038;2022-10-31T01:51:19;13.00;99.90
14511;DHT22;7341;50.930;4.038;2022-10-31T01:53:47;13.00;99.90
14511;DHT22;7341;50.930;4.038;2022-10-31T01:56:16;13.00;99.90
14511;DHT22;7341;50.930;4.038;2022-10-31T01:58:47;13.00;99.90
14511;DHT22;7341;50.930;4.038;2022-10-31T02:01:16;13.00;99.90
14511;DHT22;7341;50.930;4.038;2022-10-31T02:03:44;13.00;99.90
14511;DHT22;7341;50.930;4.038;2022-10-31T02:06:20;12.90;99.90
14511;DHT22;7341;50.930;4.038;2022-10-31T02:08:48;12.90;99.90
14511;DHT22;7341;50.930;4.038;2022-10-31T02:11:15;12.80;99.90
14511;DHT22;7341;50.930;4.038;2022-10-31T02:13:43;13.00;99.90
14511;DHT22;7341;50.930;4.038;2022-10-31T02:16:11;12.90;99.90
14511;DHT22;7341;50.930;4.038;2022-10-31T02:18:38;12.80;99.90
14511;DHT22;7341;50.930;4.038;2022-10-31T02:21:13;12.80;99.90
14511;DHT22;7341;50.930;4.038;2022-10-31T02:24:18;12.80;99.90
14511;DHT22;7341;50.930;4.038;2022-10-31T02:26:54;12.70;99.90
14511;DHT22;7341;50.930;4.038;2022-10-31T02:32:20;12.70;99.90
14511;DHT22;7341;50.930;4.038;2022-10-31T02:34:54;12.70;99.90
14511;DHT22;7341;50.930;4.038;2022-10-31T02:37:27;12.60;99.90
14511;DHT22;7341;50.930;4.038;2022-10-31T02:40:03;12.60;99.90
14511;DHT22;7341;50.930;4.038;2022-10-31T02:42:34;12.60;99.90
14511;DHT22;7341;50.930;4.038;2022-10-31T02:45:08;12.60;99.90
14511;DHT22;7341;50.930;4.038;2022-10-31T02:47:42;12.60;99.90
14511;DHT22;7341;50.930;4.038;2022-10-31T02:50:15;12.60;99.90
14511;DHT22;7341;50.930;4.038;2022-10-31T02:52:42;12.60;99.90
14511;DHT22;7341;50.930;4.038;2022-10-31T02:55:12;12.60;99.90
14511;DHT22;7341;50.930;4.038;2022-10-31T02:57:41;12.50;99.90
14511;DHT22;7341;50.930;4.038;2022-10-31T03:00:09;12.60;99.90
14511;DHT22;7341;50.930;4.038;2022-10-31T03:02:55;12.50;99.90
14511;DHT22;7341;50.930;4.038;2022-10-31T03:05:38;12.60;99.90
14511;DHT22;7341;50.930;4.038;2022-10-31T03:08:12;12.50;99.90
14511;DHT22;7341;50.930;4.038;2022-10-31T03:10:45;12.40;99.90
14511;DHT22;7341;50.930;4.038;2022-10-31T03:13:21;12.40;99.90
14511;DHT22;7341;50.930;4.038;2022-10-31T03:15:54;12.40;99.90
14511;DHT22;7341;50.930;4.038;2022-10-31T03:18:26;12.30;99.90
14511;DHT22;7341;50.930;4.038;2022-10-31T03:20:58;12.30;99.90
14511;DHT22;7341;50.930;4.038;2022-10-31T03:23:28;12.30;99.90
14511;DHT22;7341;50.930;4.038;2022-10-31T03:25:58;12.20;99.90
14511;DHT22;7341;50.930;4.038;2022-10-31T03:28:33;12.20;99.90
14511;DHT22;7341;50.930;4.038;2022-10-31T03:31:04;12.30;99.90
14511;DHT22;7341;50.930;4.038;2022-10-31T03:33:35;12.30;99.90
14511;DHT22;7341;50.930;4.038;2022-10-31T03:36:04;12.20;99.90
14511;DHT22;7341;50.930;4.038;2022-10-31T03:38:35;12.20;99.90
14511;DHT22;7341;50.930;4.038;2022-10-31T03:41:04;12.20;99.90
14511;DHT22;7341;50.930;4.038;2022-10-31T03:43:35;12.30;99.90
14511;DHT22;7341;50.930;4.038;2022-10-31T03:46:04;12.40;99.90
14511;DHT22;7341;50.930;4.038;2022-10-31T03:48:34;12.30;99.90
14511;DHT22;7341;50.930;4.038;2022-10-31T03:51:06;12.30;99.90
14511;DHT22;7341;50.930;4.038;2022-10-31T03:53:36;12.30;99.90
14511;DHT22;7341;50.930;4.038;2022-10-31T03:56:10;12.30;99.90
14511;DHT22;7341;50.930;4.038;2022-10-31T03:58:42;12.30;99.90
14511;DHT22;7341;50.930;4.038;2022-10-31T04:01:14;12.30;99.90
14511;DHT22;7341;50.930;4.038;2022-10-31T04:03:44;12.10;99.90
14511;DHT22;7341;50.930;4.038;2022-10-31T04:06:13;12.10;99.90
14511;DHT22;7341;50.930;4.038;2022-10-31T04:08:45;12.00;99.90
14511;DHT22;7341;50.930;4.038;2022-10-31T04:11:16;12.00;99.90
14511;DHT22;7341;50.930;4.038;2022-10-31T04:13:45;12.00;99.90
14511;DHT22;7341;50.930;4.038;2022-10-31T04:16:15;12.00;99.90
14511;DHT22;7341;50.930;4.038;2022-10-31T04:18:44;12.00;99.90
14511;DHT22;7341;50.930;4.038;2022-10-31T04:21:10;11.80;99.90
14511;DHT22;7341;50.930;4.038;2022-10-31T04:23:41;11.80;99.90
14511;DHT22;7341;50.930;4.038;2022-10-31T04:26:10;11.80;99.90
14511;DHT22;7341;50.930;4.038;2022-10-31T04:28:38;11.80;99.90
14511;DHT22;7341;50.930;4.038;2022-10-31T04:31:08;11.80;99.90
14511;DHT22;7341;50.930;4.038;2022-10-31T04:33:36;11.70;99.90
14511;DHT22;7341;50.930;4.038;2022-10-31T04:36:04;11.70;99.90
14511;DHT22;7341;50.930;4.038;2022-10-31T04:38:33;11.70;99.90
14511;DHT22;7341;50.930;4.038;2022-10-31T04:41:00;11.70;99.90
14511;DHT22;7341;50.930;4.038;2022-10-31T04:43:28;11.70;99.90
14511;DHT22;7341;50.930;4.038;2022-10-31T04:45:57;11.60;99.90
14511;DHT22;7341;50.930;4.038;2022-10-31T04:48:24;11.60;99.90
14511;DHT22;7341;50.930;4.038;2022-10-31T04:50:51;11.60;99.90
14511;DHT22;7341;50.930;4.038;2022-10-31T04:53:20;11.60;99.90
14511;DHT22;7341;50.930;4.038;2022-10-31T04:55:47;11.60;99.90
14511;DHT22;7341;50.930;4.038;2022-10-31T04:58:14;11.60;99.90
14511;DHT22;7341;50.930;4.038;2022-10-31T05:00:41;11.50;99.90
14511;DHT22;7341;50.930;4.038;2022-10-31T05:03:07;11.50;99.90
14511;DHT22;7341;50.930;4.038;2022-10-31T05:05:34;11.50;99.90
14511;DHT22;7341;50.930;4.038;2022-10-31T05:08:01;11.50;99.90
14511;DHT22;7341;50.930;4.038;2022-10-31T05:10:31;11.30;99.90
14511;DHT22;7341;50.930;4.038;2022-10-31T05:12:59;11.40;99.90
14511;DHT22;7341;50.930;4.038;2022-10-31T05:15:27;11.40;99.90
14511;DHT22;7341;50.930;4.038;2022-10-31T05:17:54;11.30;99.90
14511;DHT22;7341;50.930;4.038;2022-10-31T05:20:23;11.30;99.90
14511;DHT22;7341;50.930;4.038;2022-10-31T05:22:52;11.40;99.90
14511;DHT22;7341;50.930;4.038;2022-10-31T05:25:20;11.50;99.90
14511;DHT22;7341;50.930;4.038;2022-10-31T05:27:50;11.50;99.90
14511;DHT22;7341;50.930;4.038;2022-10-31T05:30:19;11.50;99.90
14511;DHT22;7341;50.930;4.038;2022-10-31T05:32:48;11.50;99.90
14511;DHT22;7341;50.930;4.038;2022-10-31T05:35:18;11.50;99.90
14511;DHT22;7341;50.930;4.038;2022-10-31T05:37:46;11.50;99.90
14511;DHT22;7341;50.930;4.038;2022-10-31T05:40:15;11.60;99.90
14511;DHT22;7341;50.930;4.038;2022-10-31T05:42:42;11.70;99.90
14511;DHT22;7341;50.930;4.038;2022-10-31T05:45:13;11.70;99.90
14511;DHT22;7341;50.930;4.038;2022-10-31T05:47:40;11.80;99.90
14511;DHT22;7341;50.930;4.038;2022-10-31T05:50:09;11.90;99.90
14511;DHT22;7341;50.930;4.038;2022-10-31T05:52:36;11.90;99.90
14511;DHT22;7341;50.930;4.038;2022-10-31T05:55:04;11.90;99.90
14511;DHT22;7341;50.930;4.038;2022-10-31T05:57:32;11.90;99.90
14511;DHT22;7341;50.930;4.038;2022-10-31T05:59:59;11.90;99.90
14511;DHT22;7341;50.930;4.038;2022-10-31T06:02:31;12.00;99.90
14511;DHT22;7341;50.930;4.038;2022-10-31T06:04:59;11.90;99.90
14511;DHT22;7341;50.930;4.038;2022-10-31T06:07:26;11.90;99.90
14511;DHT22;7341;50.930;4.038;2022-10-31T06:09:53;11.90;99.90
14511;DHT22;7341;50.930;4.038;2022-10-31T06:12:20;12.00;99.90
14511;DHT22;7341;50.930;4.038;2022-10-31T06:14:47;12.10;99.90
14511;DHT22;7341;50.930;4.038;2022-10-31T06:17:14;12.00;99.90
14511;DHT22;7341;50.930;4.038;2022-10-31T06:19:42;12.10;99.90
14511;DHT22;7341;50.930;4.038;2022-10-31T06:22:09;12.20;99.90
14511;DHT22;7341;50.930;4.038;2022-10-31T06:24:37;12.20;99.90
14511;DHT22;7341;50.930;4.038;2022-10-31T06:27:05;12.20;99.90
14511;DHT22;7341;50.930;4.038;2022-10-31T06:29:31;12.20;99.90
14511;DHT22;7341;50.930;4.038;2022-10-31T06:31:58;12.20;99.90
14511;DHT22;7341;50.930;4.038;2022-10-31T06:34:25;12.20;99.90
14511;DHT22;7341;50.930;4.038;2022-10-31T06:36:53;12.20;99.90
14511;DHT22;7341;50.930;4.038;2022-10-31T06:39:20;12.30;99.90
14511;DHT22;7341;50.930;4.038;2022-10-31T06:41:47;12.30;99.90
14511;DHT22;7341;50.930;4.038;2022-10-31T06:44:15;12.30;99.90
14511;DHT22;7341;50.930;4.038;2022-10-31T06:46:42;12.40;99.90
14511;DHT22;7341;50.930;4.038;2022-10-31T06:49:09;12.30;99.90
14511;DHT22;7341;50.930;4.038;2022-10-31T06:51:35;12.30;99.90
14511;DHT22;7341;50.930;4.038;2022-10-31T06:54:04;12.40;99.90
14511;DHT22;7341;50.930;4.038;2022-10-31T06:56:32;12.40;99.90
14511;DHT22;7341;50.930;4.038;2022-10-31T06:58:58;12.50;99.90
14511;DHT22;7341;50.930;4.038;2022-10-31T07:01:25;12.60;99.90
14511;DHT22;7341;50.930;4.038;2022-10-31T07:03:52;12.60;99.90
14511;DHT22;7341;50.930;4.038;2022-10-31T07:06:19;12.60;99.90
14511;DHT22;7341;50.930;4.038;2022-10-31T07:08:47;12.70;99.90
14511;DHT22;7341;50.930;4.038;2022-10-31T07:11:15;12.70;99.90
14511;DHT22;7341;50.930;4.038;2022-10-31T07:13:42;12.80;99.90
14511;DHT22;7341;50.930;4.038;2022-10-31T07:16:09;12.90;99.90
14511;DHT22;7341;50.930;4.038;2022-10-31T07:18:37;12.80;99.90
14511;DHT22;7341;50.930;4.038;2022-10-31T07:21:04;12.90;99.90
14511;DHT22;7341;50.930;4.038;2022-10-31T07:23:31;12.90;99.90
14511;DHT22;7341;50.930;4.038;2022-10-31T07:25:59;12.90;99.90
14511;DHT22;7341;50.930;4.038;2022-10-31T07:28:27;13.00;99.90
14511;DHT22;7341;50.930;4.038;2022-10-31T07:30:55;12.90;99.90
14511;DHT22;7341;50.930;4.038;2022-10-31T07:33:23;12.90;99.90
14511;DHT22;7341;50.930;4.038;2022-10-31T07:35:52;12.90;99.90
14511;DHT22;7341;50.930;4.038;2022-10-31T07:38:19;13.00;99.90
14511;DHT22;7341;50.930;4.038;2022-10-31T07:40:49;13.00;99.90
14511;DHT22;7341;50.930;4.038;2022-10-31T07:43:17;13.10;99.90
14511;DHT22;7341;50.930;4.038;2022-10-31T07:45:49;13.10;99.90
14511;DHT22;7341;50.930;4.038;2022-10-31T07:48:15;13.00;99.90
14511;DHT22;7341;50.930;4.038;2022-10-31T07:50:42;13.10;99.90
14511;DHT22;7341;50.930;4.038;2022-10-31T07:53:11;13.10;99.90
14511;DHT22;7341;50.930;4.038;2022-10-31T07:55:38;13.20;99.90
14511;DHT22;7341;50.930;4.038;2022-10-31T07:58:06;13.10;99.90
14511;DHT22;7341;50.930;4.038;2022-10-31T08:00:36;13.20;99.90
14511;DHT22;7341;50.930;4.038;2022-10-31T08:03:07;13.30;99.90
14511;DHT22;7341;50.930;4.038;2022-10-31T08:05:34;13.50;99.90
14511;DHT22;7341;50.930;4.038;2022-10-31T08:08:01;13.40;99.90
14511;DHT22;7341;50.930;4.038;2022-10-31T08:10:28;13.50;99.90
14511;DHT22;7341;50.930;4.038;2022-10-31T08:12:56;13.40;99.90
14511;DHT22;7341;50.930;4.038;2022-10-31T08:15:25;13.60;99.90
14511;DHT22;7341;50.930;4.038;2022-10-31T08:17:52;13.60;99.90
14511;DHT22;7341;50.930;4.038;2022-10-31T08:20:21;13.80;99.90
14511;DHT22;7341;50.930;4.038;2022-10-31T08:22:55;13.70;99.90
14511;DHT22;7341;50.930;4.038;2022-10-31T08:25:23;13.80;99.90
14511;DHT22;7341;50.930;4.038;2022-10-31T08:27:51;13.70;99.90
14511;DHT22;7341;50.930;4.038;2022-10-31T08:30:18;13.60;99.90
14511;DHT22;7341;50.930;4.038;2022-10-31T08:32:45;13.70;99.90
14511;DHT22;7341;50.930;4.038;2022-10-31T08:35:12;13.90;99.90
14511;DHT22;7341;50.930;4.038;2022-10-31T08:37:44;14.10;99.90
14511;DHT22;7341;50.930;4.038;2022-10-31T08:40:11;14.30;99.90
14511;DHT22;7341;50.930;4.038;2022-10-31T08:42:38;14.40;99.90
14511;DHT22;7341;50.930;4.038;2022-10-31T08:45:09;14.40;99.90
14511;DHT22;7341;50.930;4.038;2022-10-31T08:47:42;14.30;99.90
14511;DHT22;7341;50.930;4.038;2022-10-31T08:50:15;14.20;99.90
14511;DHT22;7341;50.930;4.038;2022-10-31T08:52:47;14.20;99.90
14511;DHT22;7341;50.930;4.038;2022-10-31T08:55:20;14.30;99.90
14511;DHT22;7341;50.930;4.038;2022-10-31T08:57:46;14.50;99.90
14511;DHT22;7341;50.930;4.038;2022-10-31T09:00:16;14.60;99.90
14511;DHT22;7341;50.930;4.038;2022-10-31T09:02:42;14.70;99.90
14511;DHT22;7341;50.930;4.038;2022-10-31T09:05:09;14.70;99.90
14511;DHT22;7341;50.930;4.038;2022-10-31T09:07:36;14.70;99.90
14511;DHT22;7341;50.930;4.038;2022-10-31T09:10:05;14.80;99.90
14511;DHT22;7341;50.930;4.038;2022-10-31T09:12:32;14.80;99.90
14511;DHT22;7341;50.930;4.038;2022-10-31T09:14:59;14.40;99.90
14511;DHT22;7341;50.930;4.038;2022-10-31T09:17:26;14.60;99.90
14511;DHT22;7341;50.930;4.038;2022-10-31T09:19:54;14.20;99.90
14511;DHT22;7341;50.930;4.038;2022-10-31T09:22:21;14.10;99.90
14511;DHT22;7341;50.930;4.038;2022-10-31T09:24:48;14.10;99.90
14511;DHT22;7341;50.930;4.038;2022-10-31T09:27:19;14.20;99.90
14511;DHT22;7341;50.930;4.038;2022-10-31T09:29:46;14.30;99.90
14511;DHT22;7341;50.930;4.038;2022-10-31T09:32:13;14.50;99.90
14511;DHT22;7341;50.930;4.038;2022-10-31T09:34:39;14.60;99.90
14511;DHT22;7341;50.930;4.038;2022-10-31T09:37:06;14.60;99.90
14511;DHT22;7341;50.930;4.038;2022-10-31T09:39:35;14.60;99.90
14511;DHT22;7341;50.930;4.038;2022-10-31T09:42:15;14.80;99.90
14511;DHT22;7341;50.930;4.038;2022-10-31T09:44:58;14.80;99.90
14511;DHT22;7341;50.930;4.038;2022-10-31T09:47:36;14.80;99.90
14511;DHT22;7341;50.930;4.038;2022-10-31T09:50:15;14.80;99.90
14511;DHT22;7341;50.930;4.038;2022-10-31T09:52:51;14.90;99.90
14511;DHT22;7341;50.930;4.038;2022-10-31T09:55:26;15.00;99.90
14511;DHT22;7341;50.930;4.038;2022-10-31T09:57:54;15.10;99.90
14511;DHT22;7341;50.930;4.038;2022-10-31T10:00:22;15.20;99.90
14511;DHT22;7341;50.930;4.038;2022-10-31T10:02:52;15.20;99.90
14511;DHT22;7341;50.930;4.038;2022-10-31T10:05:27;15.10;99.90
14511;DHT22;7341;50.930;4.038;2022-10-31T10:08:02;15.10;99.90
14511;DHT22;7341;50.930;4.038;2022-10-31T10:10:44;15.10;99.90
14511;DHT22;7341;50.930;4.038;2022-10-31T10:13:27;15.20;99.90
14511;DHT22;7341;50.930;4.038;2022-10-31T10:16:07;15.30;99.90
14511;DHT22;7341;50.930;4.038;2022-10-31T10:18:42;15.20;99.90
14511;DHT22;7341;50.930;4.038;2022-10-31T10:21:19;15.30;99.90
14511;DHT22;7341;50.930;4.038;2022-10-31T10:23:57;15.20;99.90
14511;DHT22;7341;50.930;4.038;2022-10-31T10:26:33;15.10;99.90
14511;DHT22;7341;50.930;4.038;2022-10-31T10:29:21;15.40;99.90
14511;DHT22;7341;50.930;4.038;2022-10-31T10:31:53;15.60;99.90
14511;DHT22;7341;50.930;4.038;2022-10-31T10:34:23;15.80;99.90
14511;DHT22;7341;50.930;4.038;2022-10-31T10:36:56;15.90;99.90
14511;DHT22;7341;50.930;4.038;2022-10-31T10:39:29;15.70;99.90
14511;DHT22;7341;50.930;4.038;2022-10-31T10:41:58;15.80;99.90
14511;DHT22;7341;50.930;4.038;2022-10-31T10:44:45;16.20;99.90
14511;DHT22;7341;50.930;4.038;2022-10-31T10:47:36;15.90;99.90
14511;DHT22;7341;50.930;4.038;2022-10-31T10:50:08;15.60;99.90
14511;DHT22;7341;50.930;4.038;2022-10-31T10:52:42;15.80;99.90
14511;DHT22;7341;50.930;4.038;2022-10-31T10:55:16;15.70;99.90
14511;DHT22;7341;50.930;4.038;2022-10-31T10:57:54;15.70;99.90
14511;DHT22;7341;50.930;4.038;2022-10-31T11:00:23;15.70;99.90
14511;DHT22;7341;50.930;4.038;2022-10-31T11:02:53;15.80;99.90
14511;DHT22;7341;50.930;4.038;2022-10-31T11:05:25;15.70;99.90
14511;DHT22;7341;50.930;4.038;2022-10-31T11:07:52;15.80;99.90
14511;DHT22;7341;50.930;4.038;2022-10-31T11:10:19;15.80;99.90
14511;DHT22;7341;50.930;4.038;2022-10-31T11:13:04;15.70;99.90
14511;DHT22;7341;50.930;4.038;2022-10-31T11:15:35;15.80;99.90
14511;DHT22;7341;50.930;4.038;2022-10-31T11:18:04;16.10;99.90
14511;DHT22;7341;50.930;4.038;2022-10-31T11:20:33;16.00;99.90
14511;DHT22;7341;50.930;4.038;2022-10-31T11:23:15;16.20;99.90
14511;DHT22;7341;50.930;4.038;2022-10-31T11:25:49;16.00;99.90
14511;DHT22;7341;50.930;4.038;2022-10-31T11:28:17;16.30;99.90
14511;DHT22;7341;50.930;4.038;2022-10-31T11:30:46;16.20;99.90
14511;DHT22;7341;50.930;4.038;2022-10-31T11:33:18;16.40;99.90
14511;DHT22;7341;50.930;4.038;2022-10-31T11:35:48;16.40;99.90
14511;DHT22;7341;50.930;4.038;2022-10-31T11:38:18;16.50;99.90
14511;DHT22;7341;50.930;4.038;2022-10-31T11:41:00;16.50;99.90
14511;DHT22;7341;50.930;4.038;2022-10-31T11:43:30;16.60;99.90
14511;DHT22;7341;50.930;4.038;2022-10-31T11:45:57;16.40;99.90
14511;DHT22;7341;50.930;4.038;2022-10-31T11:48:25;16.40;99.90
14511;DHT22;7341;50.930;4.038;2022-10-31T11:50:54;16.30;99.90
14511;DHT22;7341;50.930;4.038;2022-10-31T11:53:26;16.40;99.90
14511;DHT22;7341;50.930;4.038;2022-10-31T11:56:05;16.50;99.90
14511;DHT22;7341;50.930;4.038;2022-10-31T11:58:36;16.50;99.90
14511;DHT22;7341;50.930;4.038;2022-10-31T12:01:03;16.50;99.90
14511;DHT22;7341;50.930;4.038;2022-10-31T12:03:48;16.60;99.90
14511;DHT22;7341;50.930;4.038;2022-10-31T12:06:21;16.70;99.90
14511;DHT22;7341;50.930;4.038;2022-10-31T12:08:50;16.60;99.90
14511;DHT22;7341;50.930;4.038;2022-10-31T12:11:39;16.80;99.90
14511;DHT22;7341;50.930;4.038;2022-10-31T12:14:18;17.00;99.90
14511;DHT22;7341;50.930;4.038;2022-10-31T12:16:51;17.00;99.90
14511;DHT22;7341;50.930;4.038;2022-10-31T12:19:31;17.10;99.90
14511;DHT22;7341;50.930;4.038;2022-10-31T12:22:07;17.40;99.90
14511;DHT22;7341;50.930;4.038;2022-10-31T12:24:48;17.50;99.90
14511;DHT22;7341;50.930;4.038;2022-10-31T12:27:29;17.60;99.90
14511;DHT22;7341;50.930;4.038;2022-10-31T12:30:14;17.80;99.90
14511;DHT22;7341;50.930;4.038;2022-10-31T12:32:53;17.60;99.90
14511;DHT22;7341;50.930;4.038;2022-10-31T12:35:30;17.80;99.90
14511;DHT22;7341;50.930;4.038;2022-10-31T12:38:21;17.90;99.90
14511;DHT22;7341;50.930;4.038;2022-10-31T12:41:07;18.00;99.90
14511;DHT22;7341;50.930;4.038;2022-10-31T12:43:42;18.20;99.90
14511;DHT22;7341;50.930;4.038;2022-10-31T12:46:22;18.20;99.90
14511;DHT22;7341;50.930;4.038;2022-10-31T12:52:00;18.30;99.90
14511;DHT22;7341;50.930;4.038;2022-10-31T12:54:50;18.10;99.90
14511;DHT22;7341;50.930;4.038;2022-10-31T12:57:23;18.00;99.90
14511;DHT22;7341;50.930;4.038;2022-10-31T12:59:57;18.00;99.90
14511;DHT22;7341;50.930;4.038;2022-10-31T13:02:32;18.00;99.90
14511;DHT22;7341;50.930;4.038;2022-10-31T13:05:04;18.20;99.90
14511;DHT22;7341;50.930;4.038;2022-10-31T13:07:37;18.30;99.90
14511;DHT22;7341;50.930;4.038;2022-10-31T13:10:10;18.30;99.90
14511;DHT22;7341;50.930;4.038;2022-10-31T13:12:40;18.20;99.90
14511;DHT22;7341;50.930;4.038;2022-10-31T13:15:14;18.40;99.90
14511;DHT22;7341;50.930;4.038;2022-10-31T13:17:44;18.50;99.90
14511;DHT22;7341;50.930;4.038;2022-10-31T13:20:20;18.60;99.90
14511;DHT22;7341;50.930;4.038;2022-10-31T13:22:53;18.60;99.90
14511;DHT22;7341;50.930;4.038;2022-10-31T13:25:24;18.70;99.90
14511;DHT22;7341;50.930;4.038;2022-10-31T13:27:54;18.50;99.90
14511;DHT22;7341;50.930;4.038;2022-10-31T13:30:23;18.70;99.90
14511;DHT22;7341;50.930;4.038;2022-10-31T13:32:53;18.70;99.90
14511;DHT22;7341;50.930;4.038;2022-10-31T13:35:27;18.70;99.90
14511;DHT22;7341;50.930;4.038;2022-10-31T13:38:05;18.80;99.90
14511;DHT22;7341;50.930;4.038;2022-10-31T13:40:41;18.80;99.90
14511;DHT22;7341;50.930;4.038;2022-10-31T13:43:15;19.10;99.90
14511;DHT22;7341;50.930;4.038;2022-10-31T13:45:49;19.30;99.90
14511;DHT22;7341;50.930;4.038;2022-10-31T13:48:34;19.30;99.90
14511;DHT22;7341;50.930;4.038;2022-10-31T13:51:04;19.30;99.90
14511;DHT22;7341;50.930;4.038;2022-10-31T13:53:39;19.50;99.90
14511;DHT22;7341;50.930;4.038;2022-10-31T13:56:15;19.60;99.90
14511;DHT22;7341;50.930;4.038;2022-10-31T13:58:57;19.80;99.90
14511;DHT22;7341;50.930;4.038;2022-10-31T14:01:25;19.80;99.90
14511;DHT22;7341;50.930;4.038;2022-10-31T14:04:00;19.90;99.90
14511;DHT22;7341;50.930;4.038;2022-10-31T14:06:37;19.90;99.90
14511;DHT22;7341;50.930;4.038;2022-10-31T14:09:19;19.80;99.90
14511;DHT22;7341;50.930;4.038;2022-10-31T14:11:49;19.80;99.90
14511;DHT22;7341;50.930;4.038;2022-10-31T14:14:17;19.90;99.90
14511;DHT22;7341;50.930;4.038;2022-10-31T14:16:45;19.90;99.90
14511;DHT22;7341;50.930;4.038;2022-10-31T14:19:18;19.80;99.90
14511;DHT22;7341;50.930;4.038;2022-10-31T14:21:46;19.50;99.90
14511;DHT22;7341;50.930;4.038;2022-10-31T14:24:33;19.40;99.90
14511;DHT22;7341;50.930;4.038;2022-10-31T14:27:02;19.70;99.90
14511;DHT22;7341;50.930;4.038;2022-10-31T14:29:30;19.50;99.90
14511;DHT22;7341;50.930;4.038;2022-10-31T14:32:01;19.50;99.90
14511;DHT22;7341;50.930;4.038;2022-10-31T14:34:34;19.50;99.90
14511;DHT22;7341;50.930;4.038;2022-10-31T14:37:25;19.50;99.90
14511;DHT22;7341;50.930;4.038;2022-10-31T14:43:18;19.60;99.90
14511;DHT22;7341;50.930;4.038;2022-10-31T14:45:54;19.80;99.90
14511;DHT22;7341;50.930;4.038;2022-10-31T14:51:20;19.80;99.90
14511;DHT22;7341;50.930;4.038;2022-10-31T14:53:50;20.10;99.90
14511;DHT22;7341;50.930;4.038;2022-10-31T14:56:26;20.00;99.90
14511;DHT22;7341;50.930;4.038;2022-10-31T14:58:55;19.90;99.90
14511;DHT22;7341;50.930;4.038;2022-10-31T15:01:26;19.80;99.90
14511;DHT22;7341;50.930;4.038;2022-10-31T15:03:58;19.80;99.90
14511;DHT22;7341;50.930;4.038;2022-10-31T15:06:31;19.90;99.90
14511;DHT22;7341;50.930;4.038;2022-10-31T15:08:58;19.90;99.90
14511;DHT22;7341;50.930;4.038;2022-10-31T15:11:27;20.00;99.90
14511;DHT22;7341;50.930;4.038;2022-10-31T15:13:55;20.20;99.90
14511;DHT22;7341;50.930;4.038;2022-10-31T15:16:26;20.40;99.90
14511;DHT22;7341;50.930;4.038;2022-10-31T15:18:56;20.10;99.90
14511;DHT22;7341;50.930;4.038;2022-10-31T15:21:24;19.80;99.90
14511;DHT22;7341;50.930;4.038;2022-10-31T15:23:55;19.90;99.90
14511;DHT22;7341;50.930;4.038;2022-10-31T15:26:26;20.00;99.90
14511;DHT22;7341;50.930;4.038;2022-10-31T15:29:00;20.00;99.90
14511;DHT22;7341;50.930;4.038;2022-10-31T15:31:28;20.00;99.90
14511;DHT22;7341;50.930;4.038;2022-10-31T15:33:59;20.00;99.90
14511;DHT22;7341;50.930;4.038;2022-10-31T15:36:29;20.00;99.90
14511;DHT22;7341;50.930;4.038;2022-10-31T15:38:56;19.90;99.90
14511;DHT22;7341;50.930;4.038;2022-10-31T15:41:28;19.90;99.90
14511;DHT22;7341;50.930;4.038;2022-10-31T15:44:00;19.70;99.90
14511;DHT22;7341;50.930;4.038;2022-10-31T15:46:30;19.70;99.90
14511;DHT22;7341;50.930;4.038;2022-10-31T15:48:57;19.60;99.90
14511;DHT22;7341;50.930;4.038;2022-10-31T15:51:29;19.50;99.90
14511;DHT22;7341;50.930;4.038;2022-10-31T15:53:58;19.30;99.90
14511;DHT22;7341;50.930;4.038;2022-10-31T15:56:29;19.20;99.90
14511;DHT22;7341;50.930;4.038;2022-10-31T15:58:58;19.30;99.90
14511;DHT22;7341;50.930;4.038;2022-10-31T16:01:29;19.10;99.90
14511;DHT22;7341;50.930;4.038;2022-10-31T16:04:03;19.10;99.90
14511;DHT22;7341;50.930;4.038;2022-10-31T16:06:31;19.00;99.90
14511;DHT22;7341;50.930;4.038;2022-10-31T16:08:58;19.00;99.90
14511;DHT22;7341;50.930;4.038;2022-10-31T16:11:33;18.90;99.90
14511;DHT22;7341;50.930;4.038;2022-10-31T16:14:05;18.80;99.90
14511;DHT22;7341;50.930;4.038;2022-10-31T16:16:40;18.80;99.90
14511;DHT22;7341;50.930;4.038;2022-10-31T16:19:16;18.70;99.90